Terminal Aerodrome Forecast
Issued by NWS Sioux Falls, SD

Home | Current Version | Previous Version | Graphics & Text | Print | Product List | Glossary On
Versions: 1 2 3 4 5 6 7 8 9 10 11 12 13 14 15 16 17
000
FTUS43 KFSD 261120
TAFFSD
TAF
KFSD 261120Z 2612/2712 01018G25KT 4SM -SN SCT012 OVC025
      TEMPO 2612/2614 2SM -SN BKN012
     FM261400 36020G28KT 6SM -SN BKN015
     FM261500 35022G30KT P6SM OVC020
     FM262000 34018G25KT P6SM SCT025 BKN040
     FM270000 34009KT P6SM SCT040
     FM270700 34004KT P6SM SCT120=

USA.gov is the U.S. government's official web portal to all federal, state and local government web resources and services.